Time;durP1;ratioP1;P1;durP2;ratioP2;P2;SDS_P1;SDS_P2;PMS_P1;PMS_P2;Temp;Humidity;BMP_temperature;BMP_pressure;BME280_temperature;BME280_humidity;BME280_pressure;Samples;Min_cycle;Max_cycle;Signal;HPM_P1;HPM_P2
2021/06/13 00:00:07;;;;;;;8.67;4.47;;;13.50;96.50;;;;;;6137682;23;20373;-75
2021/06/13 00:02:39;;;;;;;8.50;5.30;;;13.50;96.50;;;;;;6127722;23;20887;-75
2021/06/13 00:05:08;;;;;;;8.17;4.80;;;13.40;96.50;;;;;;6101750;23;20528;-75
2021/06/13 00:07:37;;;;;;;8.07;4.80;;;13.40;96.50;;;;;;6127389;23;20471;-75
2021/06/13 00:10:07;;;;;;;8.27;5.47;;;13.40;96.50;;;;;;6126138;23;20423;-75
2021/06/13 00:12:35;;;;;;;6.63;4.50;;;13.40;96.60;;;;;;6137532;23;20377;-75
2021/06/13 00:15:08;;;;;;;7.40;4.53;;;13.40;96.60;;;;;;6137877;23;20415;-75
2021/06/13 00:17:36;;;;;;;8.47;4.23;;;13.30;96.60;;;;;;6126050;23;20441;-75
2021/06/13 00:20:07;;;;;;;11.70;4.60;;;13.30;96.70;;;;;;6137785;23;20380;-75
2021/06/13 00:22:35;;;;;;;7.33;4.73;;;13.30;96.70;;;;;;6137502;23;20444;-75
2021/06/13 00:25:05;;;;;;;11.80;4.37;;;13.30;96.70;;;;;;6125950;23;20412;-75
2021/06/13 00:27:32;;;;;;;7.37;4.23;;;13.30;96.70;;;;;;6101255;23;20416;-75
2021/06/13 00:30:00;;;;;;;5.70;3.77;;;13.20;96.70;;;;;;6101642;23;20501;-75
2021/06/13 00:32:29;;;;;;;7.80;4.70;;;13.20;96.70;;;;;;6101837;23;20392;-75
2021/06/13 00:34:57;;;;;;;8.13;4.43;;;13.20;96.70;;;;;;6127646;23;20410;-75
2021/06/13 00:37:27;;;;;;;8.43;4.60;;;13.20;96.80;;;;;;6137181;23;20422;-75
2021/06/13 00:39:55;;;;;;;7.90;4.00;;;13.20;96.80;;;;;;6101459;23;20393;-74
2021/06/13 00:42:22;;;;;;;8.00;4.93;;;13.20;96.80;;;;;;6101436;23;20393;-75
2021/06/13 00:44:50;;;;;;;14.80;4.60;;;13.10;96.80;;;;;;6101439;23;20473;-75
2021/06/13 00:47:18;;;;;;;9.60;4.77;;;13.10;97.10;;;;;;6101666;23;20826;-75
2021/06/13 00:49:48;;;;;;;6.30;4.23;;;13.10;96.90;;;;;;6101085;23;20423;-75
2021/06/13 00:52:16;;;;;;;7.10;4.40;;;13.10;96.90;;;;;;6125908;23;20392;-75
2021/06/13 00:54:44;;;;;;;12.20;4.67;;;13.10;96.90;;;;;;6101573;23;20425;-75
2021/06/13 00:57:12;;;;;;;6.23;4.47;;;13.10;96.90;;;;;;6101136;23;20404;-75
2021/06/13 00:59:40;;;;;;;5.33;4.43;;;13.00;96.90;;;;;;6101382;23;20927;-75
2021/06/13 01:02:08;;;;;;;9.60;4.80;;;13.00;97.00;;;;;;6125639;23;20976;-75
2021/06/13 01:04:36;;;;;;;8.57;4.30;;;13.00;97.30;;;;;;6127341;23;20432;-75
2021/06/13 01:07:10;;;;;;;6.73;4.17;;;13.00;97.00;;;;;;6101152;23;20400;-75
2021/06/13 01:09:42;;;;;;;10.23;4.33;;;13.00;97.10;;;;;;6101764;23;20869;-75
2021/06/13 01:12:19;;;;;;;9.73;4.47;;;13.00;97.10;;;;;;6125550;23;20414;-75
2021/06/13 01:14:56;;;;;;;7.23;4.93;;;12.90;97.10;;;;;;6125569;23;20384;-75
2021/06/13 01:17:30;;;;;;;6.87;4.80;;;12.90;97.10;;;;;;6101192;23;20442;-74
2021/06/13 01:20:09;;;;;;;10.17;5.40;;;12.90;97.20;;;;;;6101797;23;20702;-75
2021/06/13 01:22:56;;;;;;;9.37;5.00;;;12.90;97.20;;;;;;6127417;23;20393;-75
2021/06/13 01:25:36;;;;;;;6.60;4.43;;;12.90;97.20;;;;;;6100879;23;20412;-74
2021/06/13 01:28:37;;;;;;;7.37;4.37;;;12.80;97.20;;;;;;6101396;23;20490;-74
2021/06/13 01:31:06;;;;;;;10.40;4.80;;;12.80;97.20;;;;;;6125207;23;20392;-75
2021/06/13 01:33:35;;;;;;;6.30;4.80;;;12.80;97.20;;;;;;6100979;23;20421;-75
2021/06/13 01:36:07;;;;;;;9.40;5.77;;;12.80;97.30;;;;;;6100873;23;20766;-75
2021/06/13 01:38:36;;;;;;;8.23;5.40;;;12.70;97.30;;;;;;6125076;23;20445;-74
2021/06/13 01:41:08;;;;;;;10.43;5.10;;;12.70;97.30;;;;;;6101061;23;20433;-74
2021/06/13 01:43:39;;;;;;;12.10;6.50;;;12.70;97.40;;;;;;6101000;23;20465;-75
2021/06/13 01:46:07;;;;;;;8.60;5.60;;;12.60;97.40;;;;;;6136452;23;20430;-74
2021/06/13 01:48:38;;;;;;;9.53;5.70;;;12.60;97.40;;;;;;6101033;23;20440;-75
2021/06/13 01:51:08;;;;;;;7.20;5.60;;;12.60;97.50;;;;;;6100699;23;20393;-75
2021/06/13 01:53:42;;;;;;;8.87;5.40;;;12.50;97.50;;;;;;6101019;23;20437;-74
2021/06/13 01:56:16;;;;;;;12.30;5.80;;;12.50;97.60;;;;;;6100735;23;20416;-74
2021/06/13 01:58:46;;;;;;;10.77;5.83;;;12.50;97.70;;;;;;6124915;23;20438;-74
2021/06/13 02:01:26;;;;;;;8.83;5.27;;;12.50;97.70;;;;;;6101311;23;20804;-75
2021/06/13 02:03:57;;;;;;;9.23;4.70;;;12.40;97.80;;;;;;6101076;23;20790;-75
2021/06/13 02:06:48;;;;;;;8.80;5.93;;;12.40;97.80;;;;;;6100819;23;20433;-75
2021/06/13 02:09:20;;;;;;;9.20;5.20;;;12.40;97.90;;;;;;6100763;23;20453;-75
2021/06/13 02:11:54;;;;;;;7.70;5.40;;;12.40;97.90;;;;;;6100736;23;20410;-75
2021/06/13 02:14:25;;;;;;;9.63;6.50;;;12.30;98.00;;;;;;6125506;23;20445;-75
2021/06/13 02:17:00;;;;;;;11.17;6.60;;;12.30;98.00;;;;;;6124859;23;20409;-75
2021/06/13 02:19:30;;;;;;;9.53;5.77;;;12.30;98.10;;;;;;6136967;23;20398;-75
2021/06/13 02:22:05;;;;;;;11.00;5.60;;;12.30;98.10;;;;;;6101348;23;20765;-74
2021/06/13 02:24:37;;;;;;;10.33;5.10;;;12.20;98.10;;;;;;6100616;23;20459;-74
2021/06/13 02:27:07;;;;;;;8.70;5.60;;;12.20;98.20;;;;;;6100681;23;20418;-74
2021/06/13 02:29:45;;;;;;;8.67;5.87;;;12.20;98.30;;;;;;6100697;23;20786;-75
2021/06/13 02:32:15;;;;;;;11.60;5.63;;;12.20;98.30;;;;;;6136765;23;20389;-75
2021/06/13 02:34:45;;;;;;;7.27;5.30;;;12.20;98.40;;;;;;6136321;23;20715;-74
2021/06/13 02:37:15;;;;;;;7.80;6.03;;;12.10;98.40;;;;;;6100598;23;20516;-74
2021/06/13 02:39:42;;;;;;;8.83;5.07;;;12.10;98.50;;;;;;6100448;23;20426;-75
2021/06/13 02:42:18;;;;;;;10.63;5.77;;;12.20;98.60;;;;;;6100944;23;20441;-74
2021/06/13 02:44:52;;;;;;;9.70;5.20;;;12.20;98.60;;;;;;6100693;23;20446;-75
2021/06/13 02:47:20;;;;;;;14.70;6.50;;;12.20;98.60;;;;;;6124721;23;20441;-74
2021/06/13 02:49:47;;;;;;;11.20;6.10;;;12.10;98.60;;;;;;6100583;23;20402;-75
2021/06/13 02:52:24;;;;;;;8.70;5.43;;;12.10;98.70;;;;;;6124783;23;20419;-74
2021/06/13 02:54:57;;;;;;;9.97;6.30;;;12.10;98.70;;;;;;6100499;23;20414;-75
2021/06/13 02:57:31;;;;;;;8.77;5.87;;;12.10;98.70;;;;;;6100535;23;20464;-75
2021/06/13 03:00:05;;;;;;;10.77;5.90;;;12.10;98.80;;;;;;6100400;23;20472;-74
2021/06/13 03:02:41;;;;;;;9.33;5.37;;;12.10;98.80;;;;;;6125006;23;20429;-74
2021/06/13 03:05:11;;;;;;;9.60;6.33;;;12.10;98.90;;;;;;6100270;23;20429;-75
2021/06/13 03:07:40;;;;;;;9.00;6.50;;;12.10;98.90;;;;;;6100344;23;20434;-74
2021/06/13 03:10:09;;;;;;;11.40;6.23;;;12.00;98.90;;;;;;6101374;23;20909;-74
2021/06/13 03:12:39;;;;;;;9.60;5.70;;;12.00;99.00;;;;;;6102530;23;20416;-74
2021/06/13 03:15:10;;;;;;;11.90;6.70;;;12.00;99.00;;;;;;6102660;23;20413;-75
2021/06/13 03:17:40;;;;;;;9.87;5.87;;;12.00;99.10;;;;;;6126995;23;20460;-75
2021/06/13 03:20:10;;;;;;;10.05;5.85;;;12.00;99.20;;;;;;6125457;23;20802;-74
2021/06/13 03:22:40;;;;;;;13.40;6.20;;;12.10;99.80;;;;;;6102820;23;20497;-75
2021/06/13 03:25:15;;;;;;;11.40;7.23;;;12.10;99.60;;;;;;6102330;23;20437;-75
2021/06/13 03:27:44;;;;;;;9.37;5.70;;;12.00;99.50;;;;;;6126436;23;20448;-75
2021/06/13 03:30:23;;;;;;;9.25;6.20;;;12.00;99.60;;;;;;6125306;23;20425;-75
2021/06/13 03:32:58;;;;;;;11.07;5.97;;;12.10;99.90;;;;;;6102329;23;20697;-75
2021/06/13 03:35:28;;;;;;;8.80;5.47;;;12.10;99.90;;;;;;6138029;23;20377;-74
2021/06/13 03:37:58;;;;;;;11.90;6.70;;;12.10;99.90;;;;;;6126434;23;20479;-75
2021/06/13 03:40:29;;;;;;;7.93;5.27;;;12.00;99.90;;;;;;6102301;23;20414;-74
2021/06/13 03:43:00;;;;;;;8.87;5.60;;;12.00;99.90;;;;;;6102634;23;20409;-74
2021/06/13 03:45:30;;;;;;;10.93;6.90;;;12.00;99.90;;;;;;6126357;23;20929;-74
2021/06/13 03:47:59;;;;;;;10.43;6.47;;;12.00;99.90;;;;;;6101810;23;20436;-74
2021/06/13 03:50:28;;;;;;;6.80;5.10;;;12.00;99.90;;;;;;6102184;23;20422;-74
2021/06/13 03:52:56;;;;;;;7.60;5.97;;;12.00;99.90;;;;;;6138419;23;20437;-75
2021/06/13 03:55:25;;;;;;;9.80;5.50;;;12.00;99.90;;;;;;6102129;23;20418;-74
2021/06/13 03:57:54;;;;;;;9.60;6.07;;;12.00;99.90;;;;;;6138305;23;20417;-75
2021/06/13 04:00:25;;;;;;;10.37;6.00;;;12.00;99.90;;;;;;6102120;23;20449;-75
2021/06/13 04:02:55;;;;;;;10.67;5.70;;;12.00;99.90;;;;;;6102652;23;20476;-75
2021/06/13 04:05:30;;;;;;;13.30;5.80;;;12.00;99.90;;;;;;6128288;23;20528;-74
2021/06/13 04:07:58;;;;;;;11.37;6.70;;;12.00;99.90;;;;;;6101854;23;20525;-74
2021/06/13 04:10:28;;;;;;;7.67;4.90;;;12.00;99.90;;;;;;6102151;23;20425;-74
2021/06/13 04:12:56;;;;;;;9.70;5.37;;;12.00;99.90;;;;;;6101911;23;20413;-74
2021/06/13 04:15:27;;;;;;;8.20;5.80;;;12.00;99.90;;;;;;6138112;23;20409;-75
2021/06/13 04:17:58;;;;;;;10.20;5.50;;;12.00;99.90;;;;;;6126267;23;20465;-75
2021/06/13 04:20:27;;;;;;;10.80;7.07;;;12.10;99.90;;;;;;6138008;23;20417;-74
2021/06/13 04:22:55;;;;;;;8.60;6.30;;;12.10;99.90;;;;;;6137454;23;20456;-75
2021/06/13 04:25:24;;;;;;;7.10;4.90;;;12.10;99.90;;;;;;6137347;23;20406;-75
2021/06/13 04:27:54;;;;;;;9.00;5.50;;;12.10;99.90;;;;;;6101824;23;20441;-75
2021/06/13 04:30:25;;;;;;;12.63;5.70;;;12.10;99.90;;;;;;6126899;23;20862;-75
2021/06/13 04:32:53;;;;;;;11.60;5.23;;;12.10;99.90;;;;;;6101612;23;20452;-75
2021/06/13 04:35:22;;;;;;;9.67;5.83;;;12.10;99.90;;;;;;6126420;23;20424;-75
2021/06/13 04:37:53;;;;;;;9.30;6.10;;;12.20;99.90;;;;;;6101659;23;20489;-74
2021/06/13 04:40:21;;;;;;;8.47;6.00;;;12.20;99.90;;;;;;6101788;23;20422;-75
2021/06/13 04:42:49;;;;;;;9.70;4.97;;;12.20;99.90;;;;;;6137329;23;20398;-75
2021/06/13 04:45:18;;;;;;;9.07;6.37;;;12.30;99.90;;;;;;6101553;23;20426;-75
2021/06/13 04:47:46;;;;;;;7.97;5.23;;;12.30;99.90;;;;;;6101888;23;20469;-75
2021/06/13 04:50:15;;;;;;;8.00;5.13;;;12.30;99.90;;;;;;6101482;23;20456;-75
2021/06/13 04:52:45;;;;;;;7.83;5.10;;;12.30;99.90;;;;;;6127871;23;20410;-75
2021/06/13 04:55:25;;;;;;;8.33;5.47;;;12.40;99.90;;;;;;6127608;23;20398;-75
2021/06/13 04:58:08;;;;;;;9.23;5.70;;;12.40;99.90;;;;;;6101361;23;20963;-75
2021/06/13 05:00:36;;;;;;;8.53;5.47;;;12.40;99.90;;;;;;6137555;23;20420;-74
2021/06/13 05:03:06;;;;;;;9.33;5.83;;;12.50;99.90;;;;;;6137116;23;20746;-75
2021/06/13 05:05:34;;;;;;;10.93;6.90;;;12.50;99.90;;;;;;6125666;23;20480;-75
2021/06/13 05:08:06;;;;;;;11.40;5.63;;;12.60;99.90;;;;;;6137014;23;20902;-74
2021/06/13 05:10:34;;;;;;;9.23;5.17;;;12.60;99.90;;;;;;6101302;23;20422;-75
2021/06/13 05:13:02;;;;;;;10.47;5.37;;;12.60;99.90;;;;;;6127505;23;20395;-75
2021/06/13 05:15:31;;;;;;;8.03;5.73;;;12.70;99.90;;;;;;6137095;23;20377;-75
2021/06/13 05:17:59;;;;;;;9.37;5.40;;;12.80;99.90;;;;;;6137039;23;20795;-75
2021/06/13 05:20:27;;;;;;;9.03;4.90;;;12.80;99.90;;;;;;6101122;23;20450;-75
2021/06/13 05:22:57;;;;;;;7.37;4.50;;;12.90;99.90;;;;;;6137582;23;20451;-75
2021/06/13 05:25:32;;;;;;;10.87;5.50;;;13.00;99.90;;;;;;6101282;23;20503;-75
2021/06/13 05:28:01;;;;;;;7.50;4.73;;;13.00;99.90;;;;;;6136553;23;20447;-75
2021/06/13 05:30:31;;;;;;;9.03;5.37;;;13.10;99.90;;;;;;6125377;23;20936;-75
2021/06/13 05:33:00;;;;;;;8.50;4.60;;;13.20;99.90;;;;;;6100839;23;20408;-75
2021/06/13 05:35:29;;;;;;;7.27;4.20;;;13.30;99.90;;;;;;6136700;23;20900;-75
2021/06/13 05:37:57;;;;;;;9.77;5.00;;;13.50;99.90;;;;;;6100764;23;20536;-75
2021/06/13 05:40:28;;;;;;;7.90;4.50;;;13.70;99.90;;;;;;6100645;23;20428;-75
2021/06/13 05:42:57;;;;;;;8.50;4.07;;;13.90;99.90;;;;;;6136604;23;20404;-75
2021/06/13 05:45:28;;;;;;;7.00;4.60;;;14.10;99.90;;;;;;6100800;23;20425;-75
2021/06/13 05:48:01;;;;;;;7.80;5.10;;;14.30;99.90;;;;;;6136340;23;20416;-75
2021/06/13 05:50:30;;;;;;;9.90;4.77;;;14.60;99.90;;;;;;6100834;23;20434;-75
2021/06/13 05:52:59;;;;;;;9.43;4.77;;;14.90;99.90;;;;;;6100630;23;20954;-75
2021/06/13 05:55:31;;;;;;;8.50;4.60;;;15.10;99.90;;;;;;6099264;23;20418;-75
2021/06/13 05:58:00;;;;;;;7.70;4.53;;;15.40;99.90;;;;;;6100461;23;20218;-75
2021/06/13 06:00:33;;;;;;;9.97;4.47;;;15.70;99.90;;;;;;6100625;23;20809;-75
2021/06/13 06:03:02;;;;;;;16.53;4.43;;;16.00;99.90;;;;;;6128549;23;20493;-75
2021/06/13 06:05:32;;;;;;;7.95;4.35;;;16.20;99.90;;;;;;6135490;23;20389;-75
2021/06/13 06:08:00;;;;;;;8.10;4.60;;;16.50;99.90;;;;;;6100522;23;20202;-75
2021/06/13 06:10:32;;;;;;;5.80;3.60;;;16.70;99.80;;;;;;6136359;23;20480;-75
2021/06/13 06:13:03;;;;;;;7.33;4.30;;;17.00;99.80;;;;;;6136717;23;20465;-76
2021/06/13 06:15:34;;;;;;;6.53;3.80;;;17.20;99.50;;;;;;6126471;23;20912;-75
2021/06/13 06:18:02;;;;;;;8.00;4.07;;;17.40;99.30;;;;;;6136290;23;20456;-76
2021/06/13 06:20:32;;;;;;;6.27;3.77;;;17.60;99.30;;;;;;6126723;23;20492;-76
2021/06/13 06:23:01;;;;;;;9.13;4.23;;;17.80;99.20;;;;;;6125257;23;20956;-76
2021/06/13 06:25:33;;;;;;;7.97;4.07;;;18.00;99.00;;;;;;6126469;23;20406;-76
2021/06/13 06:28:01;;;;;;;10.13;4.80;;;18.20;98.70;;;;;;6100241;23;21009;-76
2021/06/13 06:30:30;;;;;;;7.47;4.37;;;18.40;98.50;;;;;;6100364;23;20418;-76
2021/06/13 06:32:58;;;;;;;10.10;4.43;;;18.50;98.40;;;;;;6100582;23;20427;-76
2021/06/13 06:35:27;;;;;;;7.57;4.27;;;18.70;98.30;;;;;;6100496;23;20423;-76
2021/06/13 06:37:56;;;;;;;14.30;5.70;;;18.90;98.10;;;;;;6100067;23;20440;-76
2021/06/13 06:40:24;;;;;;;8.63;4.40;;;19.10;97.80;;;;;;6135982;23;20479;-76
2021/06/13 06:42:54;;;;;;;6.00;4.03;;;19.20;97.50;;;;;;6100050;23;20508;-76
2021/06/13 06:45:23;;;;;;;6.13;3.70;;;19.30;97.30;;;;;;6100023;23;20419;-76
2021/06/13 06:47:51;;;;;;;7.07;3.73;;;19.40;97.20;;;;;;6135603;23;20445;-76
2021/06/13 06:50:19;;;;;;;7.17;3.93;;;19.50;96.90;;;;;;6124482;23;20824;-76
2021/06/13 06:52:48;;;;;;;7.40;3.90;;;19.60;96.70;;;;;;6135840;23;20404;-76
2021/06/13 06:55:17;;;;;;;8.57;3.43;;;19.80;96.60;;;;;;6099864;23;20760;-76
2021/06/13 06:57:46;;;;;;;5.47;3.17;;;20.00;96.20;;;;;;6100181;23;20438;-76
2021/06/13 07:00:18;;;;;;;8.33;3.50;;;20.00;95.90;;;;;;6100123;23;20413;-76
2021/06/13 07:02:46;;;;;;;8.67;4.50;;;20.20;95.70;;;;;;6100266;23;20437;-77
2021/06/13 07:05:14;;;;;;;8.63;4.50;;;20.30;95.60;;;;;;6136288;23;20474;-76
2021/06/13 07:07:43;;;;;;;5.43;3.60;;;20.40;95.40;;;;;;6098923;23;20584;-76
2021/06/13 07:10:13;;;;;;;4.77;3.07;;;20.60;93.50;;;;;;6100226;23;20237;-77
2021/06/13 07:12:42;;;;;;;5.27;3.70;;;20.70;93.40;;;;;;6100227;23;20763;-77
2021/06/13 07:15:11;;;;;;;5.90;3.30;;;20.80;93.40;;;;;;6101304;23;20427;-77
2021/06/13 07:17:42;;;;;;;6.53;4.00;;;20.80;93.30;;;;;;6100508;23;20414;-77
2021/06/13 07:20:14;;;;;;;6.57;3.87;;;20.90;92.80;;;;;;6102809;23;20748;-77
2021/06/13 07:30:59;;;;;;;6.10;3.37;;;21.10;92.40;;;;;;5897050;24;20431;-77
2021/06/13 07:33:29;;;;;;;6.20;4.40;;;21.10;92.60;;;;;;6003757;23;20428;-77
2021/06/13 07:35:58;;;;;;;5.10;3.03;;;21.10;92.40;;;;;;6101276;23;20417;-77
2021/06/13 07:38:26;;;;;;;5.70;3.20;;;21.10;92.20;;;;;;6099998;23;20991;-77
2021/06/13 07:40:55;;;;;;;6.87;3.40;;;21.20;92.00;;;;;;6126041;23;20495;-76
2021/06/13 07:43:24;;;;;;;4.90;3.20;;;21.20;91.80;;;;;;6099979;23;20460;-76
2021/06/13 07:45:53;;;;;;;7.90;3.80;;;21.30;91.70;;;;;;6126190;23;20441;-76
2021/06/13 07:48:21;;;;;;;7.33;3.20;;;21.40;91.60;;;;;;6100078;23;20447;-77
2021/06/13 07:50:51;;;;;;;7.27;3.43;;;21.50;91.30;;;;;;6100011;23;20982;-77
2021/06/13 07:53:20;;;;;;;5.33;3.13;;;21.50;91.10;;;;;;6135801;23;20398;-77
2021/06/13 07:55:48;;;;;;;7.53;3.30;;;21.50;90.90;;;;;;6135918;23;20902;-77
2021/06/13 07:58:16;;;;;;;4.43;3.10;;;21.50;90.70;;;;;;6102248;23;20443;-78
2021/06/13 08:00:45;;;;;;;4.63;2.80;;;21.50;90.60;;;;;;6127611;23;20551;-77
2021/06/13 08:03:13;;;;;;;5.60;3.27;;;21.60;90.40;;;;;;6127712;23;20453;-77
2021/06/13 08:05:42;;;;;;;4.53;3.03;;;21.60;90.00;;;;;;6126275;23;20425;-77
2021/06/13 08:08:14;;;;;;;6.20;3.43;;;21.50;89.50;;;;;;6101862;23;20450;-78
2021/06/13 08:10:43;;;;;;;6.27;3.40;;;21.60;88.90;;;;;;6102259;23;20503;-78
2021/06/13 08:13:12;;;;;;;5.17;2.77;;;21.50;88.10;;;;;;6138429;23;20863;-78
2021/06/13 08:15:42;;;;;;;5.22;3.55;;;21.50;88.00;;;;;;6101113;23;20424;-77
2021/06/13 08:18:11;;;;;;;3.50;2.57;;;21.60;85.10;;;;;;6101784;23;20194;-77
2021/06/13 08:20:39;;;;;;;5.80;3.67;;;21.50;85.00;;;;;;6101572;23;20452;-77
2021/06/13 08:23:08;;;;;;;4.50;3.00;;;21.40;85.10;;;;;;6126507;23;20445;-78
2021/06/13 08:25:37;;;;;;;6.77;3.17;;;21.30;85.10;;;;;;6101837;23;20768;-77
2021/06/13 08:28:06;;;;;;;5.10;3.23;;;21.20;85.00;;;;;;6127857;23;20749;-77
2021/06/13 08:30:34;;;;;;;6.00;3.87;;;21.20;85.00;;;;;;6101867;23;20407;-78
2021/06/13 08:33:03;;;;;;;4.30;3.03;;;21.20;84.70;;;;;;6128335;23;20417;-78
2021/06/13 08:35:31;;;;;;;4.80;3.43;;;21.30;84.40;;;;;;6101800;23;20948;-77
2021/06/13 08:38:02;;;;;;;4.60;3.30;;;21.40;83.80;;;;;;6101559;23;20758;-77
2021/06/13 08:40:37;;;;;;;4.77;2.73;;;21.40;83.30;;;;;;6102443;23;20413;-77
2021/06/13 08:43:07;;;;;;;4.83;2.77;;;21.40;83.10;;;;;;6102586;23;20966;-77
2021/06/13 08:45:37;;;;;;;5.27;2.80;;;21.30;83.10;;;;;;6125922;23;20912;-77
2021/06/13 08:48:07;;;;;;;5.67;3.30;;;21.20;83.00;;;;;;6137172;23;20487;-77
2021/06/13 08:50:38;;;;;;;3.80;2.80;;;21.20;82.30;;;;;;6101874;23;20417;-78
2021/06/13 08:53:08;;;;;;;4.90;3.70;;;21.20;82.30;;;;;;6137316;23;20443;-77
2021/06/13 08:55:36;;;;;;;4.37;2.83;;;21.30;82.30;;;;;;6101617;23;20502;-77
2021/06/13 08:58:07;;;;;;;7.73;3.60;;;21.30;81.90;;;;;;6101436;23;20473;-77
2021/06/13 09:00:36;;;;;;;6.20;3.83;;;21.40;81.80;;;;;;6138005;23;20436;-77
2021/06/13 09:03:07;;;;;;;4.73;3.20;;;21.60;81.60;;;;;;6101544;23;20536;-78
2021/06/13 09:05:35;;;;;;;4.10;3.03;;;21.70;81.40;;;;;;6101007;23;20450;-77
2021/06/13 09:08:08;;;;;;;5.47;2.77;;;21.70;81.30;;;;;;6101049;23;20769;-77
2021/06/13 09:10:38;;;;;;;5.80;3.10;;;21.60;80.50;;;;;;6101424;23;20463;-78
2021/06/13 09:13:14;;;;;;;7.80;3.40;;;21.50;80.80;;;;;;6102080;23;20471;-78
2021/06/13 09:15:46;;;;;;;5.33;3.17;;;21.40;80.40;;;;;;6137370;23;20388;-77
2021/06/13 09:18:36;;;;;;;4.88;3.38;;;21.40;80.40;;;;;;6100850;23;20446;-77
2021/06/13 09:21:08;;;;;;;4.53;3.63;;;21.50;80.00;;;;;;6101208;23;20660;-77
2021/06/13 09:23:38;;;;;;;7.00;3.60;;;21.50;80.50;;;;;;6101265;23;20757;-77
2021/06/13 09:26:08;;;;;;;7.93;3.07;;;21.60;80.70;;;;;;6100765;23;20412;-77
2021/06/13 09:28:40;;;;;;;3.90;3.37;;;21.70;80.70;;;;;;6126878;23;20957;-77
2021/06/13 09:31:16;;;;;;;5.15;3.35;;;21.70;80.50;;;;;;6100368;23;20813;-77
2021/06/13 09:33:45;;;;;;;4.90;3.43;;;21.80;79.60;;;;;;6100977;23;20556;-77
2021/06/13 09:36:18;;;;;;;5.40;3.13;;;21.80;79.10;;;;;;6128343;23;20437;-77
2021/06/13 09:38:49;;;;;;;7.07;3.40;;;21.70;79.10;;;;;;6136517;23;20452;-77
2021/06/13 09:41:22;;;;;;;5.80;4.10;;;21.60;79.30;;;;;;6126962;23;20409;-77
2021/06/13 09:43:55;;;;;;;6.17;3.13;;;21.60;79.60;;;;;;6101717;23;20427;-77
2021/06/13 09:46:24;;;;;;;3.97;2.93;;;21.70;79.80;;;;;;6136665;23;20849;-77
2021/06/13 09:48:55;;;;;;;5.07;3.80;;;21.80;79.60;;;;;;6101327;23;20754;-77
2021/06/13 09:51:26;;;;;;;5.20;3.27;;;21.80;79.90;;;;;;6100928;23;20449;-77
2021/06/13 09:53:55;;;;;;;6.00;3.37;;;21.70;79.90;;;;;;6101901;23;20421;-77
2021/06/13 09:56:28;;;;;;;10.13;3.97;;;21.70;79.90;;;;;;6100777;23;20973;-77
2021/06/13 09:59:06;;;;;;;7.00;4.07;;;21.70;79.80;;;;;;6100933;23;20443;-77
2021/06/13 10:01:38;;;;;;;7.70;4.10;;;21.70;80.00;;;;;;6100774;23;20465;-78
2021/06/13 10:04:08;;;;;;;6.60;3.40;;;21.80;79.70;;;;;;6101078;23;20425;-77
2021/06/13 10:06:37;;;;;;;3.93;3.30;;;21.80;79.60;;;;;;6101363;23;20413;-77
2021/06/13 10:09:08;;;;;;;6.97;3.80;;;21.80;79.80;;;;;;6101041;23;20540;-77
2021/06/13 10:11:38;;;;;;;7.33;4.00;;;21.70;79.50;;;;;;6126661;23;20471;-77
2021/06/13 10:14:09;;;;;;;5.53;4.43;;;21.70;79.50;;;;;;6101819;23;20948;-77
2021/06/13 10:16:44;;;;;;;4.87;3.80;;;21.70;79.60;;;;;;6126777;23;20445;-77
2021/06/13 10:19:14;;;;;;;5.95;3.72;;;21.80;79.80;;;;;;6100782;23;20472;-77
2021/06/13 10:21:45;;;;;;;5.83;3.20;;;21.90;79.10;;;;;;6101835;23;20510;-77
2021/06/13 10:24:16;;;;;;;4.83;3.67;;;22.00;79.10;;;;;;6127826;23;20919;-78
2021/06/13 10:26:47;;;;;;;7.93;4.53;;;22.00;79.20;;;;;;6101200;23;20872;-77
2021/06/13 10:29:58;;;;;;;5.30;3.00;;;21.90;78.80;;;;;;6076010;23;20538;-77
2021/06/13 10:32:29;;;;;;;5.50;3.38;;;21.80;78.80;;;;;;6065348;23;20790;-77
2021/06/13 10:34:58;;;;;;;8.13;3.43;;;22.00;77.50;;;;;;6066098;23;20170;-76
2021/06/13 10:37:28;;;;;;;6.00;3.73;;;22.00;77.70;;;;;;6042408;23;20446;-77
2021/06/13 10:39:56;;;;;;;7.43;3.73;;;21.90;78.10;;;;;;6066800;23;20419;-77
2021/06/13 10:42:25;;;;;;;7.63;3.83;;;21.90;77.90;;;;;;6042954;23;20469;-77
2021/06/13 10:44:58;;;;;;;4.50;2.73;;;21.80;77.70;;;;;;6047401;23;20450;-77
2021/06/13 10:47:30;;;;;;;4.00;3.20;;;21.90;77.90;;;;;;6100571;23;20494;-77
2021/06/13 10:50:04;;;;;;;7.10;3.37;;;22.00;78.20;;;;;;6125783;23;20490;-77
2021/06/13 10:52:35;;;;;;;4.67;3.13;;;22.10;78.30;;;;;;6101888;23;20467;-77
2021/06/13 10:55:06;;;;;;;6.90;4.23;;;22.10;78.00;;;;;;6102284;23;20889;-78
2021/06/13 10:57:39;;;;;;;4.30;3.73;;;22.10;77.90;;;;;;6101876;23;20440;-77
2021/06/13 11:00:33;;;;;;;5.03;3.03;;;22.00;77.70;;;;;;6101166;23;20514;-77
2021/06/13 11:03:02;;;;;;;5.13;3.43;;;22.00;77.80;;;;;;6100944;23;20486;-77
2021/06/13 11:05:50;;;;;;;4.50;3.20;;;21.90;77.70;;;;;;6104562;23;20416;-77
2021/06/13 11:08:19;;;;;;;4.33;3.00;;;21.90;76.80;;;;;;6141130;23;20516;-77
2021/06/13 11:10:48;;;;;;;3.80;3.23;;;22.00;77.10;;;;;;6129969;23;20442;-78
2021/06/13 11:13:24;;;;;;;6.53;3.73;;;21.90;76.80;;;;;;6129505;23;20429;-78
2021/06/13 11:16:13;;;;;;;5.50;3.10;;;21.90;76.90;;;;;;6131093;23;20405;-78
2021/06/13 11:18:42;;;;;;;6.57;3.78;;;22.00;77.40;;;;;;6104372;23;20739;-77
2021/06/13 11:21:22;;;;;;;4.60;3.67;;;22.10;77.30;;;;;;6105942;23;20189;-78
2021/06/13 11:23:53;;;;;;;5.13;3.50;;;22.20;76.90;;;;;;6141016;23;20390;-77
2021/06/13 11:27:02;;;;;;;4.87;3.40;;;22.20;76.90;;;;;;6129627;23;20432;-78
2021/06/13 11:29:55;;;;;;;7.13;3.50;;;22.30;76.80;;;;;;6127069;23;20465;-77
2021/06/13 11:32:56;;;;;;;10.80;4.13;;;22.20;76.60;;;;;;6102225;23;20447;-77
2021/06/13 11:35:29;;;;;;;7.33;3.90;;;22.20;76.70;;;;;;6102372;23;20463;-77
2021/06/13 11:38:25;;;;;;;5.43;3.47;;;22.20;77.10;;;;;;6138369;23;20424;-77
2021/06/13 11:40:56;;;;;;;6.37;3.90;;;22.30;77.10;;;;;;6138591;23;20469;-76
2021/06/13 11:43:30;;;;;;;6.67;3.50;;;22.30;76.80;;;;;;6127296;23;20415;-77
2021/06/13 11:46:01;;;;;;;10.40;3.73;;;22.40;76.60;;;;;;6138331;23;20387;-77
2021/06/13 11:48:32;;;;;;;4.77;3.00;;;22.40;76.40;;;;;;6137755;23;20470;-76
2021/06/13 11:51:04;;;;;;;4.23;3.13;;;22.40;76.70;;;;;;6102095;23;20808;-77
2021/06/13 11:53:54;;;;;;;4.90;3.70;;;22.40;76.30;;;;;;6102267;23;20481;-77
2021/06/13 11:56:44;;;;;;;5.57;4.00;;;22.40;76.10;;;;;;6138254;23;20459;-77
2021/06/13 11:59:20;;;;;;;6.70;3.70;;;22.40;76.10;;;;;;6101874;23;20443;-77
2021/06/13 12:01:54;;;;;;;4.13;3.17;;;22.30;76.20;;;;;;6101936;23;20653;-77
2021/06/13 12:04:26;;;;;;;6.23;4.47;;;22.30;75.90;;;;;;6126276;23;20429;-77
2021/06/13 12:06:56;;;;;;;6.27;4.10;;;22.40;75.30;;;;;;6137511;23;20394;-77
2021/06/13 12:09:26;;;;;;;5.67;4.47;;;22.30;75.40;;;;;;6101792;23;20424;-77
2021/06/13 12:11:56;;;;;;;5.33;4.07;;;22.30;75.40;;;;;;6138558;23;20480;-77
2021/06/13 12:14:28;;;;;;;5.30;3.67;;;22.40;75.90;;;;;;6101904;23;20622;-77
2021/06/13 12:16:59;;;;;;;6.30;4.10;;;22.40;76.00;;;;;;6128836;23;20421;-79
2021/06/13 12:19:32;;;;;;;7.17;3.70;;;22.50;76.20;;;;;;6106545;23;20465;-79
2021/06/13 12:22:25;;;;;;;6.43;3.27;;;22.60;76.20;;;;;;6107368;23;20417;-79
2021/06/13 12:27:43;;;;;;;16.83;15.13;;;22.70;75.20;;;;;;6104371;23;20447;-77
2021/06/13 12:30:15;;;;;;;9.47;8.50;;;22.70;75.10;;;;;;6127195;23;20440;-78
2021/06/13 12:32:53;;;;;;;4.60;3.40;;;22.70;75.20;;;;;;6110198;23;20421;-79
2021/06/13 12:35:27;;;;;;;40.73;36.70;;;22.70;75.10;;;;;;6134691;23;20480;-79
2021/06/13 12:38:02;;;;;;;6.23;3.60;;;22.70;75.40;;;;;;6109037;23;20507;-78
2021/06/13 12:40:34;;;;;;;81.67;73.67;;;22.80;75.50;;;;;;6133316;23;20448;-77
2021/06/13 12:43:03;;;;;;;7.33;4.80;;;22.90;75.50;;;;;;6137623;23;20393;-77
2021/06/13 12:45:31;;;;;;;5.97;3.73;;;22.90;75.10;;;;;;6101520;23;20433;-77
2021/06/13 12:48:01;;;;;;;9.80;8.80;;;22.80;75.00;;;;;;6125772;23;20534;-76
2021/06/13 12:50:34;;;;;;;6.90;3.80;;;22.80;74.70;;;;;;6101220;23;20528;-76
2021/06/13 12:53:04;;;;;;;9.83;8.50;;;22.90;75.00;;;;;;6137244;23;20473;-76
2021/06/13 12:55:36;;;;;;;9.13;4.90;;;22.90;74.80;;;;;;6101432;23;20421;-76
2021/06/13 12:58:07;;;;;;;16.27;14.53;;;23.00;74.60;;;;;;6101338;23;21012;-77
2021/06/13 13:00:36;;;;;;;5.10;3.67;;;23.10;74.60;;;;;;6137901;23;20475;-77
2021/06/13 13:03:06;;;;;;;4.93;3.53;;;23.10;74.60;;;;;;6101513;23;20457;-76
2021/06/13 13:05:36;;;;;;;6.73;3.60;;;23.20;74.30;;;;;;6125879;23;20428;-76
2021/06/13 13:08:19;;;;;;;6.30;3.77;;;23.30;74.90;;;;;;6101581;23;20813;-76
2021/06/13 13:11:00;;;;;;;4.37;3.50;;;23.30;74.10;;;;;;6126698;23;20428;-76
2021/06/13 13:13:31;;;;;;;4.40;3.40;;;23.40;73.30;;;;;;6101590;23;20740;-77
2021/06/13 13:16:02;;;;;;;8.40;6.60;;;23.40;73.30;;;;;;6101242;23;20437;-77
2021/06/13 13:18:40;;;;;;;7.10;3.73;;;23.30;73.50;;;;;;6136945;23;20420;-77